Flight Track Log - Related Links

Times and Time Zones

All times are in EDT time to prevent confusion due to time zone crossing. See the UPS1122 flight status page for this flight to view local times or setup timezone preferences in your user account.

Time Position Orientation Groundspeed Altitude Reporting Facility
EDT Latitude Longitude Course Direction KTS MPH feet Rate Location/Type
Sat 04:59:07 38.1650 -85.7240 165° South 148 170 1,400  Level FlightAware ADS-B
Sat 04:59:57 38.1260 -85.7190 174° South 193 222 3,100 2,320 Climbing FlightAware ADS-B
Sat 05:00:22 38.1040 -85.7150 172° South 195 224 4,300 2,933 Climbing FlightAware ADS-B
Sat 05:00:42 38.0850 -85.7100 168° South 201 231 5,300 2,850 Climbing FlightAware ADS-B
Sat 05:01:02 38.0700 -85.6980 148° Southeast 207 238 6,200 2,600 Climbing FlightAware ADS-B
Sat 05:01:12 38.0650 -85.6890 125° Southeast 216 249 6,600 1,920 Climbing FlightAware ADS-B
Sat 05:01:27 38.0600 -85.6690 108° East 244 281 7,000 1,800 Climbing FlightAware ADS-B
Sat 05:01:42 38.0620 -85.6450 84° East 273 314 7,500 2,000 Climbing FlightAware ADS-B
Sat 05:01:57 38.0690 -85.6230 68° East 289 333 8,000 2,400 Climbing FlightAware ADS-B
Sat 05:02:12 38.0820 -85.6030 50° Northeast 296 341 8,700 3,000 Climbing FlightAware ADS-B
Sat 05:02:27 38.0980 -85.5880 36° Northeast 292 336 9,500 2,182 Climbing FlightAware ADS-B
Sat 05:03:07 38.1420 -85.5490 35° Northeast 310 357 10,700 1,600 Climbing FlightAware ADS-B
Sat 05:03:42 38.1820 -85.5020 43° Northeast 335 386 11,500 1,760 Climbing FlightAware ADS-B
Sat 05:04:22 38.2220 -85.4370 52° Northeast 350 403 12,900 2,175 Climbing FlightAware ADS-B
Sat 05:05:02 38.2600 -85.3690 55° Northeast 356 410 14,400 1,920 Climbing FlightAware ADS-B
Sat 05:05:37 38.2910 -85.3090 57° Northeast 372 428 15,300 1,694 Climbing FlightAware ADS-B
Sat 05:06:27 38.3410 -85.2140 56° Northeast 385 443 16,800 1,714 Climbing FlightAware ADS-B
Sat 05:07:22 38.3940 -85.1120 56° Northeast 394 453 18,300 1,768 Climbing FlightAware ADS-B
Sat 05:08:02 38.4390 -85.0270 56° Northeast 401 461 19,600 1,840 Climbing FlightAware ADS-B
Sat 05:08:37 38.4730 -84.9610 57° Northeast 406 467 20,600 1,114 Climbing FlightAware ADS-B
Sat 05:09:12 38.5070 -84.8960 56° Northeast 407 468 20,900 212 Climbing FlightAware ADS-B
Sat 05:10:02 38.5520 -84.8110 56° Northeast 407 468 20,900  Level FlightAware ADS-B
Sat 05:10:42 38.5870 -84.7440 56° Northeast 407 468 20,900 2,960 Level FlightAware ADS-B
Sat 05:11:17 38.6430 -84.6310 58° Northeast 433 498 24,600 3,171 Climbing FlightAware ADS-B
Sat 05:11:52 38.6800 -84.5600 56° Northeast 433 498 24,600  Level FlightAware ADS-B
Sat 05:12:32 38.7180 -84.4880 56° Northeast 433 498 24,600  Level FlightAware ADS-B
Sat 05:13:12 38.7560 -84.4160 56° Northeast 433 498 24,600  Level FlightAware ADS-B
Sat 05:13:52 38.7950 -84.3430 56° Northeast 433 498 24,600  Level FlightAware ADS-B
Sat 05:14:32 38.8330 -84.2710 56° Northeast 433 498 24,600  Level FlightAware ADS-B
Sat 05:15:12 38.8710 -84.1980 56° Northeast 433 498 24,600 5,294 Level FlightAware ADS-B
Sat 05:15:57 38.9690 -83.9920 58° Northeast 460 529 32,100 6,071 Climbing FlightAware ADS-B
Sat 05:16:37 39.0150 -83.9000 57° Northeast 458 527 33,200 1,624 Climbing FlightAware ADS-B
Sat 05:17:22 39.0680 -83.7950 57° Northeast 456 525 34,400 1,341 Climbing FlightAware ADS-B
Sat 05:18:02 39.1130 -83.7050 57° Northeast 458 527 35,100 494 Climbing FlightAware ADS-B
Sat 05:18:47 39.1650 -83.6020 57° Northeast 458 527 35,100  Level FlightAware ADS-B
Sat 05:19:27 39.2130 -83.5050 57° Northeast 454 522 35,100  Level FlightAware ADS-B
Sat 05:20:12 39.2630 -83.4030 58° Northeast 454 522 35,100  Level FlightAware ADS-B
Sat 05:20:52 39.3070 -83.3140 57° Northeast 453 521 35,100  Level FlightAware ADS-B
Sat 05:21:32 39.3500 -83.2260 58° Northeast 451 519 35,100  Level FlightAware ADS-B
Sat 05:22:17 39.3990 -83.1260 58° Northeast 450 518 35,100  Level FlightAware ADS-B
Sat 05:22:57 39.4470 -83.0270 58° Northeast 451 519 35,100  Level FlightAware ADS-B
Sat 05:23:32 39.4860 -82.9480 57° Northeast 451 519 35,100  Level FlightAware ADS-B
Sat 05:24:22 39.5420 -82.8310 58° Northeast 451 519 35,100  Level FlightAware ADS-B
Sat 05:25:02 39.5870 -82.7370 58° Northeast 454 522 35,100  Level FlightAware ADS-B
Sat 05:25:47 39.6360 -82.6370 58° Northeast 455 524 35,100  Level FlightAware ADS-B
Sat 05:26:27 39.6820 -82.5430 58° Northeast 455 524 35,100  Level FlightAware ADS-B
Sat 05:27:07 39.7270 -82.4500 58° Northeast 456 525 35,100  Level FlightAware ADS-B
Sat 05:27:52 39.7790 -82.3430 58° Northeast 454 522 35,100  Level FlightAware ADS-B
Sat 05:28:32 39.8230 -82.2510 58° Northeast 455 524 35,100  Level FlightAware ADS-B
Sat 05:29:12 39.8680 -82.1560 58° Northeast 457 526 35,100  Level FlightAware ADS-B
Sat 05:29:57 39.9180 -82.0510 58° Northeast 458 527 35,100  Level FlightAware ADS-B
Sat 05:30:37 39.9630 -81.9570 58° Northeast 460 529 35,100  Level FlightAware ADS-B
Sat 05:31:22 40.0140 -81.8480 59° Northeast 460 529 35,100  Level FlightAware ADS-B
Sat 05:32:02 40.0580 -81.7540 59° Northeast 461 531 35,100  Level FlightAware ADS-B
Sat 05:32:42 40.1000 -81.6620 59° Northeast 461 531 35,100  Level FlightAware ADS-B
Sat 05:33:32 40.1560 -81.5420 59° Northeast 461 531 35,100  Level FlightAware ADS-B
Sat 05:34:12 40.2020 -81.4420 59° Northeast 462 532 35,100  Level FlightAware ADS-B
Sat 05:34:52 40.2440 -81.3510 59° Northeast 463 533 35,100  Level FlightAware ADS-B
Sat 05:35:37 40.2960 -81.2400 58° Northeast 464 534 35,100  Level FlightAware ADS-B
Sat 05:36:17 40.3410 -81.1430 59° Northeast 465 535 35,100  Level FlightAware ADS-B
Sat 05:36:57 40.3840 -81.0480 59° Northeast 465 535 35,100  Level FlightAware ADS-B
Sat 05:37:42 40.4350 -80.9390 58° Northeast 465 535 35,100  Level FlightAware ADS-B
Sat 05:38:12 40.4700 -80.8620 59° Northeast 466 536 35,100  Level FlightAware ADS-B
Sat 05:38:52 40.5140 -80.7660 59° Northeast 465 535 35,100  Level FlightAware ADS-B
Sat 05:39:32 40.5580 -80.6690 59° Northeast 464 534 35,100  Level FlightAware ADS-B
Sat 05:40:17 40.6070 -80.5610 59° Northeast 465 535 35,100  Level FlightAware ADS-B
Sat 05:40:57 40.6520 -80.4640 59° Northeast 465 535 35,100  Level FlightAware ADS-B
Sat 05:41:37 40.6960 -80.3650 60° Northeast 466 536 35,100  Level FlightAware ADS-B
Sat 05:42:22 40.7450 -80.2580 59° Northeast 465 535 35,100  Level FlightAware ADS-B
Sat 05:43:02 40.7890 -80.1600 59° Northeast 465 535 35,100  Level FlightAware ADS-B
Sat 05:43:47 40.8380 -80.0470 60° Northeast 465 535 35,100  Level FlightAware ADS-B
Sat 05:44:27 40.8810 -79.9500 60° Northeast 466 536 35,100  Level FlightAware ADS-B
Sat 05:45:12 40.9320 -79.8350 60° Northeast 466 536 35,100  Level FlightAware ADS-B
Sat 05:45:52 40.9730 -79.7410 60° Northeast 466 536 35,100  Level FlightAware ADS-B
Sat 05:46:32 41.0130 -79.6480 60° Northeast 466 536 35,100  Level FlightAware ADS-B
Sat 05:47:17 41.0570 -79.5480 60° Northeast 465 535 35,100  Level FlightAware ADS-B
Sat 05:47:57 41.0990 -79.4510 60° Northeast 465 535 35,100  Level FlightAware ADS-B
Sat 05:48:42 41.1510 -79.3320 60° Northeast 464 534 35,100  Level FlightAware ADS-B
Sat 05:49:22 41.1930 -79.2350 60° Northeast 463 533 35,100  Level FlightAware ADS-B
Sat 05:50:07 41.2430 -79.1200 60° Northeast 462 532 35,100  Level FlightAware ADS-B
Sat 05:50:47 41.2820 -79.0300 60° Northeast 459 528 35,100  Level FlightAware ADS-B
Sat 05:51:27 41.3270 -78.9230 61° Northeast 457 526 35,100  Level FlightAware ADS-B
Sat 05:52:12 41.3740 -78.8140 60° Northeast 457 526 35,100  Level FlightAware ADS-B
Sat 05:52:52 41.4160 -78.7160 60° Northeast 458 527 35,100  Level FlightAware ADS-B
Sat 05:53:37 41.4630 -78.6040 61° Northeast 458 527 35,100  Level FlightAware ADS-B
Sat 05:54:17 41.5050 -78.5050 60° Northeast 459 528 35,100  Level FlightAware ADS-B
Sat 05:54:57 41.5480 -78.4020 61° Northeast 459 528 35,100  Level FlightAware ADS-B
Sat 05:55:42 41.5950 -78.2900 61° Northeast 459 528 35,100  Level FlightAware ADS-B
Sat 05:56:22 41.6370 -78.1890 61° Northeast 457 526 35,100  Level FlightAware ADS-B
Sat 05:57:07 41.6820 -78.0790 61° Northeast 456 525 35,100  Level FlightAware ADS-B
Sat 05:57:47 41.7240 -77.9780 61° Northeast 455 524 35,100  Level FlightAware ADS-B
Sat 05:58:27 41.7650 -77.8800 61° Northeast 454 522 35,100  Level FlightAware ADS-B
Sat 05:59:12 41.8110 -77.7680 61° Northeast 453 521 35,100  Level FlightAware ADS-B
Sat 05:59:52 41.8500 -77.6710 62° Northeast 452 520 35,100  Level FlightAware ADS-B
Sat 06:00:37 41.8970 -77.5570 61° Northeast 452 520 35,100  Level FlightAware ADS-B
Sat 06:01:17 41.9360 -77.4620 61° Northeast 452 520 35,100  Level FlightAware ADS-B
Sat 06:01:41 41.9665 -77.3782 64° Northeast 453 521 35,100  Level FlightAware ADS-B
Sat 06:02:42 42.0040 -77.2340 71° East 456 525 35,100 -178 Level FlightAware ADS-B
Sat 06:03:22 42.0310 -77.1260 71° East 454 522 34,800 -776 Descending FlightAware ADS-B
Sat 06:04:07 42.0600 -77.0040 72° East 455 524 34,000 -1,059 Descending FlightAware ADS-B
Sat 06:04:47 42.0860 -76.8970 72° East 455 524 33,300 -740 Descending FlightAware ADS-B
Sat 06:05:20 42.1114 -76.7888 72° East 452 520 33,100 -179 Descending FlightAware ADS-B
Sat 06:05:54 42.1334 -76.6964 72° East 452 520 33,100  Level FlightAware ADS-B
Sat 06:06:27 42.1543 -76.6084 72° East 454 522 33,100  Level FlightAware ADS-B
Sat 06:07:37 42.1950 -76.4370 72° East 453 521 33,100  Level FlightAware ADS-B
Sat 06:08:17 42.2200 -76.3290 73° East 453 521 33,100  Level FlightAware ADS-B
Sat 06:08:52 42.2400 -76.2410 73° East 453 521 33,100  Level FlightAware ADS-B
Sat 06:09:42 42.2740 -76.0950 72° East 454 522 33,100  Level FlightAware ADS-B
Sat 06:10:22 42.2970 -75.9950 73° East 454 522 33,100  Level FlightAware ADS-B
Sat 06:11:07 42.3300 -75.8510 73° East 456 525 33,100  Level FlightAware ADS-B
Sat 06:11:47 42.3440 -75.7370 81° East 459 528 33,100  Level FlightAware ADS-B
Sat 06:12:27 42.3570 -75.6300 81° East 458 527 33,100 -141 Level FlightAware ADS-B
Sat 06:13:12 42.3740 -75.4940 80° East 451 519 32,900 -1,129 Descending FlightAware ADS-B
Sat 06:13:52 42.3880 -75.3840 80° East 448 516 31,500 -1,412 Descending FlightAware ADS-B
Sat 06:14:37 42.4030 -75.2630 80° East 436 502 30,900 -1,482 Descending FlightAware ADS-B
Sat 06:15:17 42.4170 -75.1540 80° East 436 502 29,400 -1,600 Descending FlightAware ADS-B
Sat 06:16:07 42.4330 -75.0310 80° East 428 493 28,500 -540 Descending FlightAware ADS-B
Sat 06:16:57 42.4480 -74.9180 80° East 428 493 28,500  Level FlightAware ADS-B
Sat 06:17:37 42.4600 -74.8290 80° East 428 493 28,500 -3,840 Level FlightAware ADS-B
Sat 06:18:12 42.4720 -74.7160 82° East 380 437 23,700 -3,600 Descending FlightAware ADS-B
Sat 06:18:57 42.4840 -74.6240 80° East 380 437 23,700  Level FlightAware ADS-B
Sat 06:19:37 42.4950 -74.5440 79° East 380 437 23,700  Level FlightAware ADS-B
Sat 06:20:27 42.5080 -74.4440 80° East 380 437 23,700  Level FlightAware ADS-B
Sat 06:21:07 42.5180 -74.3650 80° East 380 437 23,700  Level FlightAware ADS-B
Sat 06:21:47 42.5280 -74.2850 80° East 380 437 23,700 -1,224 Level FlightAware ADS-B
Sat 06:25:17 42.4100 -73.7160 106° East 366 421 18,600 -1,576 Descending FlightAware ADS-B
Sat 06:26:02 42.3870 -73.6150 107° East 357 411 17,000 -2,100 Descending FlightAware ADS-B
Sat 06:26:37 42.3710 -73.5420 107° East 359 413 15,800 -2,047 Descending FlightAware ADS-B
Sat 06:27:27 42.3480 -73.4350 106° East 376 433 14,100 -1,133 Descending FlightAware ADS-B
Sat 06:28:07 42.3310 -73.3580 107° East 376 433 14,100  Level FlightAware ADS-B
Sat 06:28:47 42.3150 -73.2810 106° East 376 433 14,100 -2,400 Level FlightAware ADS-B
Sat 06:29:32 42.2225 -73.2419 106° East 319 367 10,700 -3,455 Descending Boston Center
Sat 06:29:53 42.1892 -73.2247 159° South 312 359 10,300 -1,000 Descending Boston Center
Sat 06:30:32 42.1519 -73.2047 158° South 306 352 9,700 -1,200 Descending Boston Center
Sat 06:30:53 42.1144 -73.1900 164° South 293 337 9,100 -1,500 Descending Boston Center
Sat 06:31:32 42.0689 -73.1672 160° South 294 338 8,200 -1,377 Descending Boston Center
Sat 06:31:54 42.0397 -73.1528 160° South 285 328 7,700 -1,300 Descending Boston Center
Sat 06:32:32 42.0108 -73.1219 142° Southeast 283 326 6,900 -1,475 Descending Boston Center
Sat 06:32:55 41.9775 -73.0936 148° Southeast 274 315 6,200 -1,200 Descending Boston Center
Sat 06:33:32 41.9464 -73.0514 135° Southeast 271 312 5,700 -800 Descending Boston Center
Sat 06:33:55 41.9236 -73.0317 147° Southeast 261 300 5,400 -600 Descending Boston Center
Sat 06:34:32 41.8989 -73.0006 137° Southeast 259 298 5,100 -680 Descending Boston Center
Sat 06:35:32 41.8617 -72.9306 126° Southeast 218 251 4,300 -786 Descending Boston Center
Sat 06:35:56 41.8597 -72.8972 94° East 209 241 4,000 -900 Descending Boston Center
Sat 06:36:32 41.8536 -72.8553 101° East 203 234 3,400 -1,082 Descending Boston Center
Sat 06:36:57 41.8517 -72.8275 95° East 196 226 2,900 -1,000 Descending Boston Center
Sat 06:37:32 41.8581 -72.7914 77° East 174 200 2,400 -984 Descending Boston Center
Sat 06:37:58 41.8725 -72.7747 41° Northeast 160 184 1,900 -900 Descending Boston Center
Sat 06:38:32 41.8894 -72.7553 41° Northeast 136 157 1,500 -700 Descending Boston Center
Sat 06:38:58 41.8997 -72.7414 45° Northeast 135 155 1,200 -600 Descending Boston Center
Sat 06:39:32 41.9125 -72.7247 44° Northeast 130 150 900 -689 Descending Boston Center
Sat 06:39:59 41.9228 -72.7108 45° Northeast 122 140 500 10,100 Descending Boston Center
Sat 06:40:32 41.9375 -72.6911 45° Northeast 120 138 11,000 6,774 Climbing Boston Center
Sat 06:41:32 41.9542 -72.6578 56° Northeast 120 138 11,000  Level Boston Center
Sat 06:43:00 41.9333 -72.6833 135° Southeast  Level FlightAware Approximate
Sat 06:50:00 41.9392 -72.6834 135° Southeast  Level Estimated
Sat 06:51:00 41.9333 -72.6833 135° Southeast  Level FlightAware Approximate
Sat 06:52:00 41.9392 -72.6834 135° Southeast  Level Estimated

Login

Don't have an account? Register now (free) for customized features, flight alerts, and more!